Alamogordo, New Mexico
Current Conditions -  °F | °C
As of 4:15 PM on Wednesday 26 Nov 2014 (Local Time) from KALM Reporting Station
Clear Clear  
Wind Chill: 63°   Ceiling: Unl
Heat Index: 63°   Visibility: 10mi
Dew Point: 19°   Wind: 12mph
Humidity: 19%   Direction: 350°N
Pressure: 30.27"   Gusts: NA
Location:  32.9°N, 105.96°W
Report Text: KALM 262315Z AUTO 35010KT 10SM CLR 17/M07 A3027 RMK AO2
Loading
Personal Weather Stations






























Interactive Weather Map New forecast layout! Learn more

10-Day Weather Forecast

Advertisements
Track Severe Weather on mobile